Decoded Metar for USNN (NIZHNEVARTOVSK in RUSSIA) (IATA:NJC) | Meteo·Mobile Aviation Weather
aviador You're here:

USNN Decoded Metar

NIZHNEVARTOVSK in RUSSIA
Report Time2019-02-17 05:30:00
UTC Time2019-02-17 06:05:46
Flight Rules mvfr MVFR
Wind150° at 6 kt
W.Decomp.*RWY 21: 1.6 kt HW 5.8 kt LCW
W.Rank150° ranks 15
Current wind is below 150° avg. (7.5)
Visibility9999 m
Phenomena:N/A
Clouds:Broken 024 Hf
Expected CloudBase > 800 ft AGL from Temp-Dew spread
Ceiling2,400 ft
Temp-14°C (ISA -29)
Dew Point-16°C (85% RH)
AAT-19.6°C
QNH1001 hPa
Density Alt-2,999 ft
Elevation177 ft
Report Wrong Elevation
Raw Report
USNN 170530Z 15003MPS 9999 BKN024 M14/M16 Q1001 R21/491234 NOSIG
RMK QFE746=

Extra information for USNN:More info

Metar Taf Metar & Taf Last 4 Metars F.Rules Stats Wind Profile Meteogram Temp Stats Airport Information Weather charts Add Link Nearby VenuesMetar ALERT Operation Metar Decoded Social comments